Fort Fraser, Canada
Current Conditions -  °F | °C
As of 6:14 PM on Sunday 25 Jan 2015 (Local Time) from CYXS Reporting Station
Light Rain Light Rain  
Wind Chill: 31°   Ceiling: 3100
Heat Index: 36°   Visibility: 1.7mi
Dew Point: 36°   Wind: 6mph
Humidity: 100%   Direction: 160°SSE
Pressure: 29.93"   Gusts: NA
Location:  54.05°N, 124.53°W
Report Text: CYXS 260214Z AUTO 16005KT 1 3/4SM -RA BR OVC031 02/02 A2993 RMK SLP160
Loading
Personal Weather Stations






























Interactive Weather Map New forecast layout! Learn more

10-Day Weather Forecast

Advertisements
Track Severe Weather on mobile